• Join FlightAware (Why Join?)
  • Login
  • US Flag 
12:18AM EST


 

Airport Tracker/Info


-or-


 

Live Flight TrackerFlight Track Log ✈ N273SK ✈ 22-Apr-2013 ✈ KJFK - KIAD

Flight Track Log - Related Links

Times and Time Zones

All times are in EDT time to prevent confusion due to time zone crossing. See the N273SK flight status page for this flight to view local times or setup timezone preferences in your user account.

Time Position Orientation Groundspeed Altitude Reporting Facility
EDT Latitude Longitude Course Direction KTS MPH feet Rate Location/Type
03:14PM 40.5811 -73.7986 232° Southwest 242 278 3,400  Level New York Center
03:15PM 40.5194 -73.8506 213° Southwest 266 306 6,100 2,700 Climbing New York Center
03:16PM 40.3951 -74.1574 229° Southwest  Level FlightAware Approximate
03:16PM 40.4781 -73.9142 229° Southwest 278 320 9,000  Level New York Center
03:17PM 40.3338 -74.2549 232° Southwest  Level FlightAware Approximate
03:17PM 40.4333 -74.0000 236° Southwest 271 312 11,500  Level New York TRACON
03:18PM 40.2742 -74.3542 232° Southwest  Level FlightAware Approximate
03:18PM 40.3833 -74.1000 237° Southwest 306 352 13,300  Level New York TRACON
03:19PM 40.2187 -74.4521 232° Southwest  Level FlightAware Approximate
03:19PM 40.3494 -74.1942 245° Southwest 308 354 15,000  Level New York Center
03:20PM 40.3008 -74.2925 237° Southwest 308 354 16,800 960 Climbing New York Center
03:21PM 40.2494 -74.3986 238° Southwest 335 386 17,000 60 Climbing New York Center
03:22PM 40.2133 -74.4892 242° Southwest 352 405 17,000 420 Level New York Center
03:23PM 40.2233 -74.6339 275° West 344 396 17,900 420 Climbing New York Center
03:24PM 40.2478 -74.7711 283° West 368 423 17,900  Level New York Center
03:25PM 40.2719 -74.9194 282° West 379 436 17,900  Level New York Center
03:26PM 40.2944 -75.0514 283° West 374 430 17,900  Level New York Center
03:27PM 40.3128 -75.1697 282° West 374 430 17,900  Level New York Center
03:28PM 40.3436 -75.2969 288° West 374 430 18,000  Climbing New York Center
03:29PM 40.4139 -75.4186 307° West 374 430 18,000  Level New York Center
03:30PM 40.4664 -75.5122 306° West 390 449 18,000  Level New York Center
03:31PM 40.5081 -75.6653 290° West 374 430 18,000 -60 Level New York Center
03:32PM 40.4619 -75.7711 240° Southwest 339 390 17,900  Descending New York Center
03:33PM 40.3947 -75.8781 230° Southwest 367 422 18,000  Climbing New York Center
03:34PM 40.3211 -75.9922 230° Southwest 384 442 17,900 -120 Descending New York Center
03:35PM 40.2583 -76.0883 229° Southwest 384 442 17,800 -540 Descending New York Center
03:36PM 40.1847 -76.1942 228° Southwest 379 436 16,900 -1,080 Descending New York Center
03:37PM 40.1197 -76.2922 229° Southwest 369 425 15,700 -660 Descending New York Center
03:39PM 40.0167 -76.5167 239° Southwest 372 428 15,000 -240 Descending Potomac TRACON
03:40PM 39.9667 -76.6333 241° Southwest 377 434 15,000  Level Potomac TRACON
03:41PM 39.9167 -76.7500 241° Southwest 374 430 15,000  Level Potomac TRACON
03:42PM 39.8500 -76.8667 233° Southwest 368 423 15,000 -240 Level Potomac TRACON
03:43PM 39.8000 -76.9667 237° Southwest 366 421 14,600 -600 Descending Potomac TRACON
03:44PM 39.7500 -77.0833 241° Southwest 364 419 13,900 -900 Descending Potomac TRACON
03:45PM 39.7000 -77.2000 241° Southwest 357 411 12,800 -1,740 Descending Potomac TRACON
03:46PM 39.6500 -77.2833 232° Southwest 330 380 10,600 -1,800 Descending Potomac TRACON
03:47PM 39.5833 -77.3500 218° Southwest 258 297 9,200 -1,260 Descending Potomac TRACON
03:48PM 39.5333 -77.4000 218° Southwest 265 305 8,000 -1,260 Descending Potomac TRACON
03:49PM 39.4833 -77.4500 218° Southwest 239 275 6,700 -1,320 Descending Potomac TRACON
03:50PM 39.4167 -77.4500 180° South 246 283 5,500 -900 Descending Potomac TRACON
03:51PM 39.3500 -77.4500 180° South 238 274 5,000 -300 Descending Potomac TRACON
03:52PM 39.2833 -77.4500 180° South 245 282 5,000  Level Potomac TRACON
03:53PM 39.2167 -77.4500 180° South 248 285 5,000 -600 Level Potomac TRACON
03:54PM 39.1500 -77.4500 180° South 248 285 3,800 -1,260 Descending Potomac TRACON
03:55PM 39.0833 -77.4500 180° South 229 264 2,500 -1,200 Descending Potomac TRACON
03:56PM 39.0333 -77.4667 195° South 153 176 1,600 -1,020 Descending Potomac TRACON